Time;durP1;ratioP1;P1;durP2;ratioP2;P2;SDS_P1;SDS_P2;PMS_P1;PMS_P2;Temp;Humidity;BMP_temperature;BMP_pressure;BME280_temperature;BME280_humidity;BME280_pressure;Samples;Min_cycle;Max_cycle;Signal;HPM_P1;HPM_P2
2023/01/26 00:00:59;;;;;;;7.18;3.55;;;;;;;0.07;71.31;94328.94;5004844;28;20017;-78
2023/01/26 00:03:25;;;;;;;8.73;3.97;;;;;;;0.07;71.21;94329.72;5004503;28;20026;-78
2023/01/26 00:05:50;;;;;;;9.60;4.32;;;;;;;0.06;71.37;94328.13;5004479;28;20018;-77
2023/01/26 00:08:16;;;;;;;10.25;4.38;;;;;;;0.06;71.34;94322.09;5004343;28;20085;-78
2023/01/26 00:10:48;;;;;;;8.68;4.35;;;;;;;0.05;71.20;94321.28;5004428;28;20076;-78
2023/01/26 00:13:17;;;;;;;8.45;4.18;;;;;;;0.04;71.34;94326.75;5004259;28;20069;-78
2023/01/26 00:15:43;;;;;;;7.28;4.07;;;;;;;0.05;71.33;94331.00;5004138;28;20032;-78
2023/01/26 00:18:09;;;;;;;9.02;4.60;;;;;;;0.03;71.31;94340.91;5004121;28;20050;-78
2023/01/26 00:20:34;;;;;;;10.13;4.28;;;;;;;0.06;70.96;94337.81;5004111;28;20018;-78
2023/01/26 00:22:59;;;;;;;7.13;4.03;;;;;;;0.04;71.07;94342.50;5004165;28;20028;-78
2023/01/26 00:25:25;;;;;;;9.88;4.90;;;;;;;0.01;71.07;94335.91;5004064;28;20029;-78
2023/01/26 00:27:50;;;;;;;7.15;4.13;;;;;;;-0.05;71.38;94326.34;5002966;28;20053;-78
2023/01/26 00:30:16;;;;;;;15.82;5.22;;;;;;;-0.04;71.18;94326.13;5003960;28;20029;-78
2023/01/26 00:32:41;;;;;;;9.90;4.90;;;;;;;-0.01;71.00;94320.41;5004143;28;20093;-79
2023/01/26 00:35:07;;;;;;;7.40;4.22;;;;;;;0.01;71.04;94317.56;5004092;28;20050;-79
2023/01/26 00:37:33;;;;;;;8.70;4.55;;;;;;;0.00;70.94;94308.13;5003753;28;20164;-79
2023/01/26 00:39:58;;;;;;;6.57;3.58;;;;;;;-0.05;70.79;94306.19;5004046;28;20060;-79
2023/01/26 00:42:24;;;;;;;14.25;5.53;;;;;;;-0.08;71.02;94300.59;5003980;28;20026;-79
2023/01/26 00:44:50;;;;;;;11.38;5.25;;;;;;;-0.16;71.06;94308.84;5004241;28;20276;-79
2023/01/26 00:47:17;;;;;;;13.27;5.50;;;;;;;-0.19;70.94;94304.09;5005078;28;20221;-78
2023/01/26 00:49:43;;;;;;;11.50;5.10;;;;;;;-0.23;71.58;94303.75;5005322;28;20026;-78
2023/01/26 00:52:08;;;;;;;11.57;5.43;;;;;;;-0.24;71.40;94297.72;5003213;28;20061;-78
2023/01/26 00:54:34;;;;;;;11.18;5.15;;;;;;;-0.27;71.54;94295.56;5003681;28;20022;-78
2023/01/26 00:56:59;;;;;;;9.63;4.82;;;;;;;-0.30;71.11;94287.41;5002469;28;20105;-78
2023/01/26 00:59:25;;;;;;;14.68;6.00;;;;;;;-0.28;71.57;94294.00;5003671;28;20025;-78
2023/01/26 01:01:51;;;;;;;9.60;5.00;;;;;;;-0.32;71.63;94285.00;5003586;28;20029;-78
2023/01/26 01:04:16;;;;;;;10.88;4.57;;;;;;;-0.29;71.39;94279.28;5003712;28;20097;-78
2023/01/26 01:06:42;;;;;;;7.50;4.20;;;;;;;-0.31;71.05;94281.34;5003477;28;20320;-78
2023/01/26 01:09:08;;;;;;;8.73;4.65;;;;;;;-0.30;71.08;94279.53;5003525;28;20023;-81
2023/01/26 01:11:34;;;;;;;8.38;4.28;;;;;;;-0.40;71.25;94277.53;5003424;28;20097;-81
2023/01/26 01:14:00;;;;;;;8.98;4.22;;;;;;;-0.37;71.25;94277.03;5003469;28;20224;-81
2023/01/26 01:16:27;;;;;;;10.98;4.82;;;;;;;-0.37;71.18;94282.28;5003733;28;20045;-82
2023/01/26 01:18:56;;;;;;;9.38;4.30;;;;;;;-0.38;71.08;94283.31;5003263;28;20030;-82
2023/01/26 01:21:22;;;;;;;12.95;4.85;;;;;;;-0.36;70.97;94277.88;5003422;28;20046;-82
2023/01/26 01:23:48;;;;;;;10.40;5.25;;;;;;;-0.36;71.16;94273.41;5003320;28;20030;-81
2023/01/26 01:26:14;;;;;;;10.70;4.47;;;;;;;-0.40;71.26;94267.06;5003309;28;20029;-81
2023/01/26 01:28:41;;;;;;;9.38;4.75;;;;;;;-0.37;71.29;94263.94;5002415;28;20027;-82
2023/01/26 01:31:09;;;;;;;10.73;4.50;;;;;;;-0.37;71.22;94261.34;5003332;28;20026;-82
2023/01/26 01:33:35;;;;;;;6.95;4.05;;;;;;;-0.45;71.03;94264.31;5003432;28;20022;-80
2023/01/26 01:36:03;;;;;;;9.57;4.53;;;;;;;-0.45;71.15;94266.94;5003185;28;20311;-80
2023/01/26 01:38:29;;;;;;;10.70;4.03;;;;;;;-0.34;71.03;94271.34;5003264;28;20022;-80
2023/01/26 01:40:55;;;;;;;12.20;4.47;;;;;;;-0.31;70.42;94263.00;5003498;28;20021;-80
2023/01/26 01:43:22;;;;;;;9.68;4.20;;;;;;;-0.30;70.63;94262.00;5003429;28;20224;-80
2023/01/26 01:45:49;;;;;;;5.95;2.60;;;;;;;-0.37;70.43;94258.72;5003099;28;20026;-80
2023/01/26 01:48:26;;;;;;;8.32;3.83;;;;;;;-0.37;70.27;94261.34;5003204;28;20210;-79
2023/01/26 01:50:57;;;;;;;6.10;3.25;;;;;;;-0.41;70.16;94265.44;5002976;28;20260;-79
2023/01/26 01:53:31;;;;;;;11.23;3.90;;;;;;;-0.46;70.52;94262.75;5003199;28;20263;-79
2023/01/26 01:56:00;;;;;;;6.28;3.15;;;;;;;-0.50;70.39;94256.41;5003302;28;20022;-79
2023/01/26 01:58:28;;;;;;;13.07;3.80;;;;;;;-0.60;70.82;94254.38;5003288;28;20025;-79
2023/01/26 02:00:54;;;;;;;8.05;3.17;;;;;;;-0.59;71.09;94250.75;5003076;28;20038;-80
2023/01/26 02:03:20;;;;;;;8.27;3.45;;;;;;;-0.56;71.09;94252.88;5005356;28;20025;-80
2023/01/26 02:06:06;;;;;;;8.35;3.80;;;;;;;-0.63;71.20;94247.78;5006704;28;20028;-79
2023/01/26 02:08:42;;;;;;;8.07;3.33;;;;;;;-0.56;70.83;94239.78;5006660;28;20089;-79
2023/01/26 02:11:12;;;;;;;10.80;3.55;;;;;;;-0.59;70.53;94239.44;5006476;28;20045;-79
2023/01/26 02:13:39;;;;;;;7.25;3.28;;;;;;;-0.61;70.77;94240.50;5006451;28;20332;-79
2023/01/26 02:16:05;;;;;;;7.88;3.38;;;;;;;-0.62;70.95;94238.88;5006594;28;20065;-80
2023/01/26 02:18:30;;;;;;;9.13;3.58;;;;;;;-0.61;70.77;94230.03;5006601;28;20316;-79
2023/01/26 02:20:59;;;;;;;7.18;3.30;;;;;;;-0.59;70.99;94223.75;5006604;28;20316;-80
2023/01/26 02:23:31;;;;;;;7.20;3.38;;;;;;;-0.58;71.17;94217.50;5006459;28;20037;-79
2023/01/26 02:26:02;;;;;;;13.10;3.33;;;;;;;-0.66;70.99;94210.81;5006049;28;20030;-78
2023/01/26 02:28:28;;;;;;;6.97;3.50;;;;;;;-0.61;70.81;94203.84;5006438;28;20058;-78
2023/01/26 02:30:55;;;;;;;9.25;3.72;;;;;;;-0.69;71.13;94201.59;5006301;28;20053;-78
2023/01/26 02:33:23;;;;;;;6.38;3.28;;;;;;;-0.64;71.29;94208.75;5006183;28;20093;-78
2023/01/26 02:35:49;;;;;;;6.47;2.95;;;;;;;-0.66;70.98;94201.13;5004921;28;20080;-78
2023/01/26 02:38:16;;;;;;;9.93;3.70;;;;;;;-0.65;71.23;94197.50;5006334;28;20317;-78
2023/01/26 02:41:03;;;;;;;6.78;3.42;;;;;;;-0.67;71.11;94202.16;5006555;28;20030;-77
2023/01/26 02:43:29;;;;;;;7.43;3.50;;;;;;;-0.68;71.08;94197.16;5006526;28;20030;-78
2023/01/26 02:45:54;;;;;;;10.52;3.38;;;;;;;-0.72;71.23;94190.78;5005515;28;20275;-78
2023/01/26 02:51:05;;;;;;;6.82;4.10;;;;;;;-0.81;70.95;94187.78;5005876;28;20032;-79
2023/01/26 02:53:31;;;;;;;6.22;3.63;;;;;;;-0.82;71.46;94186.16;5006126;28;20094;-79
2023/01/26 02:55:56;;;;;;;10.05;3.80;;;;;;;-0.82;71.21;94180.94;5006188;28;20018;-79
2023/01/26 02:58:22;;;;;;;7.50;3.45;;;;;;;-0.78;71.36;94173.41;5005750;28;20029;-79
2023/01/26 03:00:47;;;;;;;10.57;4.28;;;;;;;-0.79;71.35;94179.66;5005736;28;20018;-79
2023/01/26 03:03:17;;;;;;;8.07;3.85;;;;;;;-0.79;71.09;94162.16;5005681;28;20081;-79
2023/01/26 03:05:43;;;;;;;10.25;3.20;;;;;;;-0.83;70.94;94169.69;5004489;28;20045;-79
2023/01/26 03:08:08;;;;;;;7.50;3.13;;;;;;;-0.83;71.14;94166.28;5005669;28;20038;-80
2023/01/26 03:10:34;;;;;;;8.18;3.05;;;;;;;-0.77;71.22;94173.19;5005550;28;20030;-79
2023/01/26 03:12:59;;;;;;;7.97;3.15;;;;;;;-0.76;70.95;94164.28;5005581;28;20217;-79
2023/01/26 03:29:25;;;;;;;7.82;3.47;;;;;;;-0.95;71.60;94131.50;5006160;28;20093;-79
2023/01/26 03:31:51;;;;;;;5.25;2.97;;;;;;;-0.89;71.57;94133.19;5005929;28;20348;-80
2023/01/26 03:34:19;;;;;;;8.98;3.58;;;;;;;-0.88;71.50;94127.69;5005855;28;20050;-82
2023/01/26 03:36:45;;;;;;;7.80;3.33;;;;;;;-0.87;71.58;94128.50;5005409;28;20044;-81
2023/01/26 03:41:06;;;;;;;6.25;3.30;;;;;;;-0.84;71.47;94126.19;5005412;28;20058;-81
2023/01/26 03:58:21;;;;;;;5.65;3.15;;;;;;;-0.96;71.18;94122.06;5004719;28;20025;-80
2023/01/26 04:00:48;;;;;;;5.45;3.17;;;;;;;-0.93;71.00;94114.53;5004607;28;20030;-79
2023/01/26 04:08:43;;;;;;;8.32;3.45;;;;;;;-0.90;70.73;94108.81;5004616;28;20382;-80
2023/01/26 04:11:09;;;;;;;8.25;3.85;;;;;;;-0.95;70.96;94100.91;5004206;28;20030;-79
2023/01/26 04:21:46;;;;;;;7.75;3.75;;;;;;;-0.99;71.14;94078.84;5004096;28;20068;-79
2023/01/26 04:24:15;;;;;;;8.80;3.63;;;;;;;-1.06;71.31;94068.53;5004062;28;20054;-79
2023/01/26 04:26:42;;;;;;;6.95;3.78;;;;;;;-1.16;71.69;94065.75;5004048;28;20076;-78
2023/01/26 04:29:12;;;;;;;9.95;4.20;;;;;;;-1.12;71.52;94061.63;5004047;28;20049;-79
2023/01/26 04:31:39;;;;;;;6.43;3.47;;;;;;;-1.12;71.74;94066.03;5003815;28;20042;-78
2023/01/26 04:34:08;;;;;;;6.35;3.10;;;;;;;-1.09;71.44;94071.59;5004097;28;20233;-78
2023/01/26 04:36:34;;;;;;;7.82;3.22;;;;;;;-1.15;70.86;94051.63;5003815;28;20030;-78
2023/01/26 04:38:59;;;;;;;7.88;3.33;;;;;;;-1.12;70.75;94061.63;5004008;28;20057;-78
2023/01/26 04:41:25;;;;;;;6.90;3.58;;;;;;;-1.13;70.79;94062.66;5003874;28;20309;-78
2023/01/26 04:43:50;;;;;;;14.35;6.53;;;;;;;-1.12;70.68;94066.84;5003958;28;20022;-78
2023/01/26 04:46:16;;;;;;;6.30;3.97;;;;;;;-1.07;70.27;94080.00;5003637;28;20081;-78
2023/01/26 04:48:41;;;;;;;8.60;3.75;;;;;;;-1.03;69.90;94070.66;5003811;28;20390;-78
2023/01/26 04:51:14;;;;;;;7.38;3.80;;;;;;;-1.06;69.36;94058.06;5003535;28;20026;-78
2023/01/26 04:53:41;;;;;;;6.35;3.20;;;;;;;-1.09;69.79;94071.59;5002566;28;20018;-78
2023/01/26 04:56:08;;;;;;;7.75;3.85;;;;;;;-1.10;69.83;94070.03;5003685;28;20158;-78
2023/01/26 04:58:33;;;;;;;9.00;3.22;;;;;;;-1.07;69.79;94076.63;5003695;28;20022;-77
2023/01/26 05:00:59;;;;;;;6.38;3.42;;;;;;;-1.04;69.83;94073.50;5003627;28;20038;-77
2023/01/26 05:03:25;;;;;;;7.55;3.90;;;;;;;-1.02;70.04;94081.91;5003825;28;20252;-78
2023/01/26 05:05:53;;;;;;;7.38;4.38;;;;;;;-0.97;69.66;94083.84;5003577;28;20024;-78
2023/01/26 05:08:20;;;;;;;6.30;3.17;;;;;;;-0.92;69.58;94071.63;5003601;28;20046;-78
2023/01/26 05:10:46;;;;;;;8.52;3.92;;;;;;;-0.93;69.78;94074.50;5003395;28;20265;-79
2023/01/26 05:13:11;;;;;;;8.45;3.80;;;;;;;-0.89;69.83;94070.38;5002368;28;20022;-79
2023/01/26 05:15:37;;;;;;;4.78;3.08;;;;;;;-0.84;69.64;94068.63;5003513;28;20018;-79
2023/01/26 05:18:04;;;;;;;6.05;3.45;;;;;;;-0.82;69.16;94073.63;5003449;28;20029;-79
2023/01/26 05:20:30;;;;;;;7.20;3.50;;;;;;;-0.76;69.31;94064.81;5002162;28;20091;-78
2023/01/26 05:22:55;;;;;;;8.85;3.65;;;;;;;-0.71;69.06;94062.31;5003642;28;20087;-79
2023/01/26 05:25:21;;;;;;;10.45;4.15;;;;;;;-0.69;68.81;94062.88;5003291;28;20029;-79
2023/01/26 05:27:47;;;;;;;9.52;3.65;;;;;;;-0.66;68.45;94074.69;5003560;28;20325;-79
2023/01/26 05:30:13;;;;;;;7.18;3.95;;;;;;;-0.65;68.52;94055.34;5003096;28;20212;-79
2023/01/26 05:32:39;;;;;;;14.95;4.70;;;;;;;-0.64;68.14;94064.75;5003336;28;20050;-79
2023/01/26 05:35:05;;;;;;;13.25;4.72;;;;;;;-0.62;68.16;94058.25;5001988;28;20287;-80
2023/01/26 05:37:32;;;;;;;8.02;3.45;;;;;;;-0.56;68.26;94053.09;5004279;28;20037;-79
2023/01/26 05:39:57;;;;;;;8.75;3.78;;;;;;;-0.57;67.93;94052.31;5007497;28;20085;-79
2023/01/26 05:42:23;;;;;;;8.55;3.83;;;;;;;-0.54;67.86;94061.50;5007458;28;20022;-79
2023/01/26 05:44:49;;;;;;;8.52;4.10;;;;;;;-0.54;68.07;94058.91;5007303;28;20306;-79
2023/01/26 05:47:15;;;;;;;9.02;4.72;;;;;;;-0.56;67.97;94055.72;5007548;28;20065;-80
2023/01/26 05:49:41;;;;;;;10.93;5.00;;;;;;;-0.54;68.15;94057.06;5006186;28;20022;-78
2023/01/26 05:52:15;;;;;;;12.43;5.72;;;;;;;-0.59;68.38;94059.63;5007274;28;20048;-78
2023/01/26 05:54:41;;;;;;;9.80;5.35;;;;;;;-0.52;68.24;94069.91;5007108;28;20029;-79
2023/01/26 05:57:07;;;;;;;9.38;5.22;;;;;;;-0.49;67.90;94072.06;5007215;28;20022;-79
2023/01/26 05:59:33;;;;;;;11.52;5.47;;;;;;;-0.46;67.72;94061.13;5007169;28;20069;-80
2023/01/26 06:01:58;;;;;;;8.60;4.95;;;;;;;-0.43;67.49;94064.06;5007201;28;20248;-80
2023/01/26 06:04:24;;;;;;;7.57;4.75;;;;;;;-0.46;67.25;94064.50;5007182;28;20042;-79
2023/01/26 06:06:53;;;;;;;6.80;4.28;;;;;;;-0.45;67.36;94065.31;5007228;28;20037;-81
2023/01/26 06:09:19;;;;;;;9.63;4.85;;;;;;;-0.44;67.51;94056.44;5006877;28;20069;-81
2023/01/26 06:11:45;;;;;;;14.13;5.00;;;;;;;-0.41;67.62;94059.38;5005733;28;20022;-80
2023/01/26 06:14:11;;;;;;;13.60;5.35;;;;;;;-0.42;67.68;94051.75;5007120;28;20034;-81
2023/01/26 06:16:36;;;;;;;16.17;6.22;;;;;;;-0.42;67.88;94059.59;5006870;28;20142;-81
2023/01/26 06:19:02;;;;;;;16.45;5.47;;;;;;;-0.36;67.73;94053.41;5006465;28;20026;-81
2023/01/26 06:21:27;;;;;;;16.63;6.57;;;;;;;-0.34;67.38;94053.16;5006618;28;20081;-80
2023/01/26 06:23:53;;;;;;;15.85;6.85;;;;;;;-0.31;67.41;94050.84;5006655;28;20064;-80
2023/01/26 06:26:18;;;;;;;14.13;6.10;;;;;;;-0.39;67.40;94042.59;5006695;28;20026;-80
2023/01/26 06:28:44;;;;;;;14.85;6.47;;;;;;;-0.39;67.81;94048.63;5006518;28;20022;-80
2023/01/26 06:31:09;;;;;;;15.93;6.97;;;;;;;-0.34;67.64;94037.47;5006594;28;20042;-80
2023/01/26 06:33:36;;;;;;;14.35;6.63;;;;;;;-0.27;67.83;94041.47;5006516;28;20026;-80
2023/01/26 06:36:08;;;;;;;19.33;7.35;;;;;;;-0.26;67.95;94032.59;5006383;28;20068;-80
2023/01/26 06:38:34;;;;;;;;;;;;;;;-0.24;67.82;94035.75;5006780;28;20026;-80
2023/01/26 06:41:01;;;;;;;11.98;5.97;;;;;;;-0.28;67.33;94032.03;5006514;28;19964;-79
2023/01/26 06:43:30;;;;;;;18.08;6.47;;;;;;;-0.29;67.51;94032.28;5006694;28;20030;-80
2023/01/26 06:45:57;;;;;;;16.08;6.13;;;;;;;-0.22;67.48;94033.69;5006210;28;20033;-79
2023/01/26 06:48:26;;;;;;;10.23;6.10;;;;;;;-0.15;67.67;94038.75;5005685;28;20034;-79
2023/01/26 06:50:55;;;;;;;14.18;6.55;;;;;;;-0.12;67.72;94032.22;5005335;28;20034;-79
2023/01/26 06:53:52;;;;;;;15.40;6.47;;;;;;;-0.05;67.51;94027.63;5006064;28;20026;-80
2023/01/26 06:56:18;;;;;;;22.67;6.40;;;;;;;-0.02;67.45;94025.31;5005732;28;20044;-80
2023/01/26 06:58:44;;;;;;;13.40;7.18;;;;;;;0.04;66.84;94017.50;5006024;28;20065;-80
2023/01/26 07:01:18;;;;;;;18.58;7.15;;;;;;;0.05;66.99;94022.50;5005841;28;20018;-80
2023/01/26 07:03:44;;;;;;;15.95;7.18;;;;;;;0.05;66.88;94026.97;5005032;28;20023;-80
2023/01/26 07:06:12;;;;;;;11.90;6.72;;;;;;;0.00;67.06;94027.69;5004129;28;20029;-81
2023/01/26 07:08:38;;;;;;;12.98;6.28;;;;;;;-0.04;67.06;94018.72;5004158;28;20015;-78
2023/01/26 07:11:04;;;;;;;21.63;8.63;;;;;;;0.02;67.45;94012.53;5003903;28;20069;-78
2023/01/26 07:13:30;;;;;;;15.23;6.75;;;;;;;0.03;67.02;94010.69;5003871;28;20087;-78
2023/01/26 07:16:03;;;;;;;25.67;6.63;;;;;;;0.05;66.98;94017.28;5005502;28;20038;-78
2023/01/26 07:18:29;;;;;;;12.02;6.18;;;;;;;0.07;67.14;94015.19;5005567;28;20210;-80
2023/01/26 07:21:00;;;;;;;15.18;8.10;;;;;;;0.11;67.08;94003.19;5005350;28;20114;-80
2023/01/26 07:23:25;;;;;;;14.60;6.97;;;;;;;0.08;67.08;94001.06;5005807;28;20026;-80
2023/01/26 07:25:51;;;;;;;15.65;7.57;;;;;;;0.11;67.22;94000.56;5005277;28;20042;-79
2023/01/26 07:28:16;;;;;;;17.17;7.38;;;;;;;0.23;66.87;94003.06;5005410;28;20053;-80
2023/01/26 07:30:41;;;;;;;18.35;6.45;;;;;;;0.25;66.36;94001.00;5005045;28;20030;-78
2023/01/26 07:33:07;;;;;;;14.60;7.00;;;;;;;0.31;66.42;93996.63;5005580;28;20204;-78
2023/01/26 07:35:32;;;;;;;17.25;6.45;;;;;;;0.34;66.36;93994.28;5005207;28;20022;-74
2023/01/26 07:37:57;;;;;;;15.10;5.95;;;;;;;0.38;65.93;93986.72;5005030;28;20022;-78
2023/01/26 07:40:23;;;;;;;13.48;6.57;;;;;;;0.46;65.84;93990.72;5004680;28;20026;-78
2023/01/26 07:42:49;;;;;;;13.90;5.95;;;;;;;0.45;65.64;93984.69;5004789;28;20046;-76
2023/01/26 07:45:16;;;;;;;11.98;5.60;;;;;;;0.42;65.40;93984.41;5004731;28;20061;-76
2023/01/26 07:47:43;;;;;;;19.02;6.28;;;;;;;0.45;65.15;93995.19;5004643;28;20206;-77
2023/01/26 07:50:10;;;;;;;11.55;5.57;;;;;;;0.42;65.31;93990.44;5004756;28;20022;-77
2023/01/26 07:52:35;;;;;;;15.05;6.32;;;;;;;0.46;65.25;93991.50;5004704;28;20096;-77
2023/01/26 07:55:01;;;;;;;18.67;5.82;;;;;;;0.53;65.35;93996.56;5004417;28;20252;-76
2023/01/26 07:57:26;;;;;;;10.02;5.28;;;;;;;0.55;65.28;93997.91;5004706;28;20026;-76
2023/01/26 07:59:52;;;;;;;13.77;5.20;;;;;;;0.66;66.30;93995.41;5004068;28;20022;-82
2023/01/26 08:02:17;;;;;;;15.15;5.13;;;;;;;0.72;68.27;94002.28;5004681;28;20212;-81
2023/01/26 08:04:43;;;;;;;9.05;4.22;;;;;;;0.82;68.99;93998.97;5004718;28;20025;-81
2023/01/26 08:07:08;;;;;;;12.77;5.78;;;;;;;0.94;67.78;93996.97;5004329;28;20325;-81
2023/01/26 08:09:34;;;;;;;14.50;5.53;;;;;;;1.04;68.34;93991.81;5004087;28;20029;-82
2023/01/26 08:12:00;;;;;;;11.27;5.53;;;;;;;1.10;64.99;93975.06;5004230;28;20026;-75
2023/01/26 08:14:26;;;;;;;16.70;5.63;;;;;;;1.07;63.57;93980.00;5004279;28;20053;-78
2023/01/26 08:16:51;;;;;;;25.02;6.85;;;;;;;1.06;63.16;93976.59;5004191;28;20053;-77
2023/01/26 08:19:17;;;;;;;21.10;5.72;;;;;;;1.04;63.17;93983.13;5003925;28;20030;-77
2023/01/26 08:21:43;;;;;;;12.93;4.80;;;;;;;1.06;63.14;93976.59;5003791;28;20030;-78
2023/01/26 08:24:11;;;;;;;10.98;5.13;;;;;;;1.04;63.62;93973.44;5003646;28;20022;-78
2023/01/26 08:26:36;;;;;;;15.80;4.65;;;;;;;1.11;63.60;93981.88;5003928;28;20300;-79
2023/01/26 08:29:02;;;;;;;11.40;5.03;;;;;;;1.13;63.55;93969.28;5003792;28;20021;-80
2023/01/26 08:31:27;;;;;;;12.68;4.75;;;;;;;1.12;63.61;93966.91;5004043;28;20086;-77
2023/01/26 08:33:54;;;;;;;11.57;4.22;;;;;;;1.14;63.79;93962.19;5003790;28;20026;-77
2023/01/26 08:36:20;;;;;;;13.15;4.80;;;;;;;1.14;63.48;93956.94;5004251;28;20112;-78
2023/01/26 08:38:46;;;;;;;11.27;4.43;;;;;;;1.15;63.44;93954.09;5004056;28;20042;-78
2023/01/26 08:41:11;;;;;;;10.82;4.07;;;;;;;1.15;63.28;93956.72;5004010;28;20018;-77
2023/01/26 08:43:37;;;;;;;12.02;4.35;;;;;;;1.24;63.54;93957.03;5003930;28;20042;-75
2023/01/26 08:46:03;;;;;;;13.60;5.50;;;;;;;1.25;63.48;93961.25;5003651;28;20061;-78
2023/01/26 08:48:30;;;;;;;12.88;4.90;;;;;;;1.25;63.47;93958.63;5003944;28;20030;-76
2023/01/26 08:51:00;;;;;;;9.70;4.35;;;;;;;1.29;63.27;93961.53;5003798;28;20202;-77
2023/01/26 08:53:28;;;;;;;9.07;4.28;;;;;;;1.27;63.02;93967.03;5004090;28;20022;-81
2023/01/26 08:55:53;;;;;;;17.13;4.75;;;;;;;1.25;63.09;93960.47;5004348;28;20259;-85
2023/01/26 08:58:19;;;;;;;7.10;3.83;;;;;;;1.26;63.01;93957.56;5003445;28;20038;-84
2023/01/26 09:00:45;;;;;;;13.88;4.13;;;;;;;1.32;62.94;93953.97;5002972;28;20068;-83
2023/01/26 09:03:10;;;;;;;7.40;3.55;;;;;;;1.34;62.84;93953.69;5004752;28;20316;-86
2023/01/26 09:05:38;;;;;;;9.30;4.28;;;;;;;1.40;62.73;93963.19;5004821;28;20030;-81
2023/01/26 09:08:06;;;;;;;8.18;3.70;;;;;;;1.43;62.39;93961.91;5004387;28;20090;-84
2023/01/26 09:10:32;;;;;;;6.50;3.60;;;;;;;1.46;62.64;93962.16;5003739;28;20026;-85
2023/01/26 09:12:58;;;;;;;9.23;3.92;;;;;;;1.48;62.33;93965.31;5003606;28;20022;-83
2023/01/26 09:15:24;;;;;;;9.52;4.60;;;;;;;1.49;62.14;93966.13;5004053;28;20372;-81
2023/01/26 09:18:05;;;;;;;;;;;;;;;;;;;;;
2023/01/26 09:20:31;;;;;;;15.27;4.55;;;;;;;1.50;62.32;93947.47;5005381;28;20046;-91
2023/01/26 09:22:56;;;;;;;9.05;4.07;;;;;;;1.57;62.18;93945.44;5003972;28;20339;-82
2023/01/26 09:25:21;;;;;;;9.75;3.78;;;;;;;1.62;61.62;93939.41;5002981;28;20034;-85
2023/01/26 09:27:47;;;;;;;8.93;3.78;;;;;;;1.66;61.67;93940.47;5004591;28;20025;-88
2023/01/26 09:30:13;;;;;;;7.78;3.28;;;;;;;1.66;61.82;93932.59;5005064;28;20090;-91
2023/01/26 09:32:38;;;;;;;7.03;3.58;;;;;;;1.72;61.52;93922.91;5004537;28;20030;-87
2023/01/26 09:35:04;;;;;;;7.95;3.78;;;;;;;1.74;61.73;93928.69;5005031;28;20022;-86
2023/01/26 09:37:29;;;;;;;9.88;3.13;;;;;;;1.77;61.36;93921.09;5005373;28;20061;-86
2023/01/26 09:39:55;;;;;;;8.52;3.63;;;;;;;1.72;61.61;93912.41;5003854;28;20065;-86
2023/01/26 09:42:36;;;;;;;8.00;3.65;;;;;;;1.75;61.75;93928.44;5004400;28;20022;-92
2023/01/26 09:45:14;;;;;;;13.77;3.33;;;;;;;1.78;61.77;93933.19;5004535;28;20049;-87
2023/01/26 09:48:13;;;;;;;6.07;3.20;;;;;;;1.84;61.72;93922.69;5004836;28;20377;-91
2023/01/26 09:50:45;;;;;;;8.55;3.38;;;;;;;1.88;61.61;93927.19;5005206;28;20033;-93
2023/01/26 09:53:18;;;;;;;9.32;2.92;;;;;;;1.95;61.58;93909.31;5004611;28;20069;-88
2023/01/26 09:55:47;;;;;;;7.32;3.20;;;;;;;1.94;61.04;93904.34;5002819;28;20205;-87
2023/01/26 09:58:27;;;;;;;7.00;3.65;;;;;;;1.90;61.49;93908.53;5005237;28;20026;-88
2023/01/26 10:00:58;;;;;;;7.00;3.97;;;;;;;1.92;61.32;93911.69;5005013;28;20022;-89
2023/01/26 10:03:39;;;;;;;11.20;3.35;;;;;;;1.98;61.25;93906.19;5006689;28;20029;-88
2023/01/26 10:06:13;;;;;;;7.50;3.53;;;;;;;1.99;61.06;93899.91;5003898;28;20026;-86
2023/01/26 10:08:41;;;;;;;5.95;3.05;;;;;;;1.96;61.27;93908.28;5004182;28;20034;-87
2023/01/26 10:11:17;;;;;;;6.18;3.13;;;;;;;1.98;61.32;93900.94;5004596;28;20090;-88
2023/01/26 10:13:50;;;;;;;7.63;2.97;;;;;;;2.00;61.20;93892.78;5003780;28;20058;-88
2023/01/26 10:16:15;;;;;;;8.48;3.20;;;;;;;2.00;61.08;93885.69;5003498;28;20029;-88
2023/01/26 10:18:50;;;;;;;8.23;2.97;;;;;;;2.00;61.22;93879.66;5004083;28;20216;-88
2023/01/26 10:21:21;;;;;;;6.68;2.72;;;;;;;1.87;61.24;93872.22;5004609;28;20108;-91
2023/01/26 10:23:48;;;;;;;7.88;3.83;;;;;;;1.84;61.65;93862.25;5005698;28;20026;-90
2023/01/26 10:26:17;;;;;;;7.97;3.47;;;;;;;1.87;61.63;93845.94;5008046;28;20037;-91
2023/01/26 10:28:45;;;;;;;6.82;3.28;;;;;;;1.93;61.79;93850.97;5007574;28;20030;-89
2023/01/26 10:31:25;;;;;;;5.57;2.67;;;;;;;1.94;61.63;93838.63;5007577;28;20033;-88
2023/01/26 10:34:15;;;;;;;5.40;2.80;;;;;;;1.93;61.73;93834.41;5005894;28;20327;-88
2023/01/26 10:36:44;;;;;;;8.00;2.65;;;;;;;1.95;61.48;93829.66;5006503;28;20331;-88
2023/01/26 10:39:12;;;;;;;11.77;3.78;;;;;;;1.92;61.36;93819.69;5006108;28;20030;-88
2023/01/26 10:41:38;;;;;;;9.27;2.75;;;;;;;1.95;61.51;93811.28;5006825;28;20018;-87
2023/01/26 10:44:10;;;;;;;8.85;2.80;;;;;;;1.97;61.49;93798.66;5006803;28;20032;-89
2023/01/26 10:46:39;;;;;;;;;;;;;;;1.90;61.54;93787.63;5007571;28;20048;-85
2023/01/26 10:49:08;;;;;;;14.30;3.20;;;;;;;1.80;61.82;93794.44;5005778;28;19928;-90
2023/01/26 10:51:37;;;;;;;10.18;3.38;;;;;;;1.83;61.91;93790.47;5006917;28;20026;-88
2023/01/26 10:54:24;;;;;;;12.80;3.47;;;;;;;1.85;61.86;93784.97;5007338;28;20086;-89
2023/01/26 10:56:54;;;;;;;5.45;2.83;;;;;;;1.83;61.67;93766.81;5005230;28;20029;-90
2023/01/26 10:59:24;;;;;;;8.52;3.40;;;;;;;1.92;61.59;93775.00;5005347;28;20091;-90
2023/01/26 11:01:58;;;;;;;5.53;3.05;;;;;;;2.01;61.32;93755.03;5006091;28;20033;-83
2023/01/26 11:04:24;;;;;;;5.88;3.25;;;;;;;2.07;60.92;93761.09;5005621;28;20247;-83
2023/01/26 11:06:50;;;;;;;5.97;2.60;;;;;;;2.05;60.88;93755.31;5005558;28;20042;-83
2023/01/26 11:09:26;;;;;;;5.53;2.30;;;;;;;2.07;60.90;93751.34;5005530;28;20330;-83
2023/01/26 11:12:02;;;;;;;11.77;2.75;;;;;;;2.12;60.82;93747.97;5005527;28;20019;-85
2023/01/26 11:14:30;;;;;;;4.60;2.58;;;;;;;2.10;60.78;93729.03;5005635;28;20202;-84
2023/01/26 11:17:07;;;;;;;7.35;3.08;;;;;;;2.16;60.50;93734.00;5006159;28;20049;-92
2023/01/26 11:23:25;;;;;;;7.35;2.67;;;;;;;2.21;60.75;93725.31;4984733;28;20048;-86
2023/01/26 11:26:04;;;;;;;7.57;2.88;;;;;;;2.26;60.57;93716.63;4985765;28;20265;-81
2023/01/26 11:28:33;;;;;;;7.63;3.83;;;;;;;2.29;60.61;93706.38;4986266;28;20038;-92
2023/01/26 11:31:22;;;;;;;5.43;3.20;;;;;;;2.40;60.04;93717.69;4986513;28;20058;-94
2023/01/26 11:33:53;;;;;;;5.70;2.40;;;;;;;2.42;59.83;93710.31;4991585;28;20019;-96
2023/01/26 11:36:33;;;;;;;8.50;2.67;;;;;;;2.47;60.46;93702.41;4987603;28;20321;-92
2023/01/26 11:39:22;;;;;;;5.22;2.40;;;;;;;2.51;59.81;93697.44;4986591;28;20042;-88
2023/01/26 11:41:56;;;;;;;7.32;3.47;;;;;;;2.57;60.11;93691.88;4984862;28;20038;-92
2023/01/26 11:44:32;;;;;;;11.52;2.90;;;;;;;2.57;59.49;93701.63;4985671;28;20023;-84
2023/01/26 11:47:19;;;;;;;10.10;3.17;;;;;;;2.56;59.71;93689.50;4984330;28;20030;-82
2023/01/26 11:50:17;;;;;;;7.22;3.85;;;;;;;2.54;60.21;93700.28;4985164;28;20038;-79
2023/01/26 11:52:58;;;;;;;7.80;3.13;;;;;;;2.56;60.14;93694.75;4985226;28;20026;-79
2023/01/26 11:55:36;;;;;;;5.47;2.60;;;;;;;2.54;59.88;93692.41;4984002;28;20041;-83
2023/01/26 11:58:10;;;;;;;6.68;3.17;;;;;;;2.55;60.06;93691.34;4985230;28;20122;-80
2023/01/26 12:00:51;;;;;;;6.13;3.33;;;;;;;2.57;59.80;93691.09;4985130;28;20026;-81
2023/01/26 12:03:30;;;;;;;6.18;3.05;;;;;;;2.51;60.01;93689.53;4985044;28;20026;-80
2023/01/26 12:06:15;;;;;;;6.82;3.80;;;;;;;2.48;60.21;93667.16;4985107;28;20042;-81
2023/01/26 12:08:46;;;;;;;10.50;3.60;;;;;;;2.46;60.35;93677.16;4985072;28;20049;-82
2023/01/26 12:11:22;;;;;;;6.60;2.85;;;;;;;2.36;60.49;93667.47;4984871;28;20154;-81
2023/01/26 12:14:17;;;;;;;9.10;3.53;;;;;;;2.31;60.78;93666.69;4984708;28;20225;-81
2023/01/26 12:16:42;;;;;;;11.32;3.38;;;;;;;2.25;61.20;93657.22;4984783;28;20026;-81
2023/01/26 12:19:23;;;;;;;6.22;2.78;;;;;;;2.19;61.80;93649.31;4984660;28;20027;-81
2023/01/26 12:21:49;;;;;;;6.22;3.40;;;;;;;2.08;61.69;93639.88;4993342;28;20041;-81
2023/01/26 12:24:23;;;;;;;5.93;3.60;;;;;;;2.04;61.98;93638.84;5004048;28;20046;-81
2023/01/26 12:26:52;;;;;;;5.63;3.33;;;;;;;2.06;62.00;93634.09;5004078;28;20046;-81
2023/01/26 12:29:41;;;;;;;7.72;3.92;;;;;;;2.04;62.50;93636.22;5003929;28;20022;-83
2023/01/26 12:32:12;;;;;;;12.35;5.15;;;;;;;2.02;62.64;93627.81;5003934;28;20026;-83
2023/01/26 12:34:37;;;;;;;11.50;4.90;;;;;;;2.01;62.85;93626.22;5003847;28;20022;-81